Погода METAR - Новосибирск (Толмачево)

Код аэропорта ICAO:
Кемерово, Абакан, Красноярск, Новосибирск
Код METAR: UNNT 212030Z 25003MPS 6000 NSC 13/12 Q1006 R25/090070 R34/090070 NOSIG RMK QFE744/0992
TAF UNNT 212000Z 2121/2221 36003MPS 0800 FU BKN011CB 
     TEMPO 2121/2204 0300 FG BKN001 BKN016CB 
     FM220400 01003G08MPS 6000 BKN030CB 
     TEMPO 2204/2221 3100 FU
       

Погода - Сейчас

Время: 2019-07-22 03:30, местное
Направление ветра: Запад-юго-запад (250°)
Скорость ветра: 3 м/с
Видимость:
Температура: 13°C
Точка росы: 12°C
Атмосферное давление: 1006 гПа

Архив погоды

Время, местное Направление Скорость, м/с Температура, °C Точка росы, °C Давление, гПа
2019-07-22 03:30 ЗЮЗ (250°) 3 13 12 1006
2019-07-22 00:00 ЗЮЗ (250°) 3 13 11 1007
2019-07-18 13:30 СЗ (320°) 4 22 16 1004
2019-07-17 16:00 ЮЗ (230°) 6 19 15 1004
2019-07-16 07:30 СЗ (320°) 1 15 13 1008
2019-07-14 14:30 СВ (30°) 7 27 17 1012
2019-07-13 20:30 СВ (30°) 4 23 14 1013
2019-07-13 14:30 СВ (30°) 6 27 12 1013
2019-07-12 20:30 СВ (30°) 3 22 13 1016
2019-07-12 18:00 СВ (40°) 5 25 12 1016
2019-07-12 13:00 СВ (50°) 5 24 11 1018
2019-07-12 05:30 ССЗ (330°) 1 7 7 1019
2019-07-11 08:30 С (360°) 2 16 13 1019
2019-07-11 00:30 З (270°) 2 12 10 1015
2019-07-07 11:30 Ю (180°) 6 25 17 999
2019-07-07 05:00 ЮВ (140°) 4 18 14 1001
2019-07-05 01:30 ЮВ (120°) 2 17 16 1004
2019-07-04 10:00 Ю (170°) 4 22 16 1009
2019-07-02 13:30 З (270°) 3 20 12 1011
2019-06-30 06:00 С (350°) 2 8 6 1017
2019-06-28 09:00 СЗ (310°) 4 19 17 1007
2019-06-26 17:30 Ю (180°) 5 26 14 1012
2019-06-25 00:30 ЮЗ (230°) 2 12 10 1012
2019-06-24 06:30 ЮЮЗ (200°) 3 9 9 1011
2019-06-23 11:30 Переменный 1 17 13 1008
2019-06-19 02:00 ЗЮЗ (240°) 6 14 10 1000
2019-06-16 19:30 ЗЮЗ (260°) 2 15 13 1000
2019-06-15 19:30 ССВ (20°) 2 17 5 1007
2019-06-14 22:30 СЗ (320°) 2 14 8 1005
2019-06-12 19:00 ЮЗ (210°) 5 26 11 1003
2019-06-11 01:00 ЗЮЗ (250°) 3 15 12 1010
2019-06-10 22:00 ЗЮЗ (250°) 4 19 12 1009
2019-06-09 12:30 Ю (180°) 4 15 13 1002
2019-06-08 17:30 ЮЗ (230°) 8 20 10 1000
2019-06-08 06:30 ЮЮВ (160°) 6 15 12 998
2019-06-06 12:00 ЮЮВ (150°) 6 24 13 1002
2019-06-04 06:00 З (280°) 2 10 9 1006
2019-06-03 04:30 ЮЮВ (160°) 2 12 7 1010
2019-05-31 16:00 ЗЮЗ (250°) 9 15 8 1008
2019-05-31 02:30 СЗ (310°) 3 8 5 1011
2019-05-28 12:00 ЗЮЗ (250°) 8 22 2 1023
2019-05-27 11:30 ЮЗ (230°) 5, порывы до 10 14 -3 1030
2019-05-27 03:00 ЮЗ (230°) 4 5 -3 1026
2019-05-25 15:00 Ю (170°) 11 25 5 1008
2019-05-25 07:30 Ю (180°) 6 15 3 1011
2019-05-23 13:30 З (280°) 7, порывы до 14 13 1 1011
2019-05-23 05:00 ЗЮЗ (260°) 4 8 3 1009
2019-05-21 18:00 З (270°) 10 12 5 1001